sensor_id;sensor_type;location;lat;lon;timestamp;pressure;altitude;pressure_sealevel;temperature;humidity
77323;BME280;66384;51.052;9.850;2023-05-08T00:00:41;99176.28;;;10.62;65.42
77323;BME280;66384;51.052;9.850;2023-05-08T00:03:10;99175.34;;;10.60;65.72
77323;BME280;66384;51.052;9.850;2023-05-08T00:05:41;99174.76;;;10.58;65.61
77323;BME280;66384;51.052;9.850;2023-05-08T00:08:10;99172.85;;;10.57;65.72
77323;BME280;66384;51.052;9.850;2023-05-08T00:10:39;99170.45;;;10.57;65.76
77323;BME280;66384;51.052;9.850;2023-05-08T00:13:09;99171.30;;;10.56;65.66
77323;BME280;66384;51.052;9.850;2023-05-08T00:15:38;99171.11;;;10.57;65.65
77323;BME280;66384;51.052;9.850;2023-05-08T00:18:08;99169.63;;;10.59;65.86
77323;BME280;66384;51.052;9.850;2023-05-08T00:20:37;99164.50;;;10.60;65.75
77323;BME280;66384;51.052;9.850;2023-05-08T00:23:07;99166.96;;;10.61;65.61
77323;BME280;66384;51.052;9.850;2023-05-08T00:25:36;99170.09;;;10.62;65.62
77323;BME280;66384;51.052;9.850;2023-05-08T00:28:05;99166.86;;;10.63;65.61
77323;BME280;66384;51.052;9.850;2023-05-08T00:30:35;99166.55;;;10.64;65.32
77323;BME280;66384;51.052;9.850;2023-05-08T00:33:04;99162.38;;;10.63;65.47
77323;BME280;66384;51.052;9.850;2023-05-08T00:35:33;99164.33;;;10.60;65.52
77323;BME280;66384;51.052;9.850;2023-05-08T00:38:02;99166.85;;;10.58;65.52
77323;BME280;66384;51.052;9.850;2023-05-08T00:40:32;99165.16;;;10.59;65.58
77323;BME280;66384;51.052;9.850;2023-05-08T00:43:01;99165.48;;;10.58;65.58
77323;BME280;66384;51.052;9.850;2023-05-08T00:45:33;99166.69;;;10.58;65.63
77323;BME280;66384;51.052;9.850;2023-05-08T00:48:05;99168.20;;;10.57;65.49
77323;BME280;66384;51.052;9.850;2023-05-08T00:50:36;99164.77;;;10.58;65.44
77323;BME280;66384;51.052;9.850;2023-05-08T00:53:05;99166.55;;;10.54;65.52
77323;BME280;66384;51.052;9.850;2023-05-08T00:55:35;99163.38;;;10.52;65.49
77323;BME280;66384;51.052;9.850;2023-05-08T00:58:04;99164.23;;;10.52;65.51
77323;BME280;66384;51.052;9.850;2023-05-08T01:00:34;99168.23;;;10.53;65.77
77323;BME280;66384;51.052;9.850;2023-05-08T01:03:04;99168.72;;;10.52;65.70
77323;BME280;66384;51.052;9.850;2023-05-08T01:05:34;99166.73;;;10.50;65.65
77323;BME280;66384;51.052;9.850;2023-05-08T01:08:03;99167.61;;;10.50;65.66
77323;BME280;66384;51.052;9.850;2023-05-08T01:10:40;99165.26;;;10.51;65.58
77323;BME280;66384;51.052;9.850;2023-05-08T01:13:16;99160.55;;;10.49;65.50
77323;BME280;66384;51.052;9.850;2023-05-08T01:15:49;99165.52;;;10.49;65.65
77323;BME280;66384;51.052;9.850;2023-05-08T01:18:25;99166.90;;;10.49;65.45
77323;BME280;66384;51.052;9.850;2023-05-08T01:21:01;99167.25;;;10.49;65.61
77323;BME280;66384;51.052;9.850;2023-05-08T01:23:51;99169.46;;;10.49;65.55
77323;BME280;66384;51.052;9.850;2023-05-08T01:26:36;99168.93;;;10.48;65.37
77323;BME280;66384;51.052;9.850;2023-05-08T01:32:17;99169.91;;;10.52;65.58
77323;BME280;66384;51.052;9.850;2023-05-08T01:34:55;99173.58;;;10.54;65.49
77323;BME280;66384;51.052;9.850;2023-05-08T01:37:31;99171.75;;;10.56;65.38
77323;BME280;66384;51.052;9.850;2023-05-08T01:40:10;99174.41;;;10.57;65.48
77323;BME280;66384;51.052;9.850;2023-05-08T01:42:49;99173.89;;;10.57;65.38
77323;BME280;66384;51.052;9.850;2023-05-08T01:45:22;99174.51;;;10.56;65.33
77323;BME280;66384;51.052;9.850;2023-05-08T01:47:59;99175.51;;;10.55;65.49
77323;BME280;66384;51.052;9.850;2023-05-08T01:50:34;99175.16;;;10.55;65.44
77323;BME280;66384;51.052;9.850;2023-05-08T01:53:11;99174.98;;;10.54;65.24
77323;BME280;66384;51.052;9.850;2023-05-08T01:55:44;99175.64;;;10.53;65.27
77323;BME280;66384;51.052;9.850;2023-05-08T01:58:16;99180.39;;;10.52;65.28
77323;BME280;66384;51.052;9.850;2023-05-08T02:00:47;99176.05;;;10.50;65.43
77323;BME280;66384;51.052;9.850;2023-05-08T02:03:17;99177.77;;;10.45;65.32
77323;BME280;66384;51.052;9.850;2023-05-08T02:05:49;99172.66;;;10.41;65.53
77323;BME280;66384;51.052;9.850;2023-05-08T02:08:21;99173.56;;;10.38;65.54
77323;BME280;66384;51.052;9.850;2023-05-08T02:10:52;99176.61;;;10.36;65.41
77323;BME280;66384;51.052;9.850;2023-05-08T02:13:24;99181.89;;;10.35;65.53
77323;BME280;66384;51.052;9.850;2023-05-08T02:15:56;99183.39;;;10.34;65.56
77323;BME280;66384;51.052;9.850;2023-05-08T02:18:28;99181.17;;;10.34;65.54
77323;BME280;66384;51.052;9.850;2023-05-08T02:21:01;99179.45;;;10.34;65.57
77323;BME280;66384;51.052;9.850;2023-05-08T02:23:33;99180.00;;;10.34;65.47
77323;BME280;66384;51.052;9.850;2023-05-08T02:26:04;99176.51;;;10.33;65.48
77323;BME280;66384;51.052;9.850;2023-05-08T02:28:33;99178.61;;;10.35;65.68
77323;BME280;66384;51.052;9.850;2023-05-08T02:31:05;99177.98;;;10.36;65.45
77323;BME280;66384;51.052;9.850;2023-05-08T02:33:35;99179.05;;;10.37;65.46
77323;BME280;66384;51.052;9.850;2023-05-08T02:36:06;99177.40;;;10.39;65.57
77323;BME280;66384;51.052;9.850;2023-05-08T02:38:37;99176.08;;;10.41;65.49
77323;BME280;66384;51.052;9.850;2023-05-08T02:41:08;99179.42;;;10.43;65.70
77323;BME280;66384;51.052;9.850;2023-05-08T02:43:38;99179.41;;;10.43;65.74
77323;BME280;66384;51.052;9.850;2023-05-08T02:46:11;99183.88;;;10.42;65.47
77323;BME280;66384;51.052;9.850;2023-05-08T02:48:50;99180.04;;;10.41;65.57
77323;BME280;66384;51.052;9.850;2023-05-08T02:51:27;99181.89;;;10.40;65.55
77323;BME280;66384;51.052;9.850;2023-05-08T02:54:02;99178.05;;;10.38;65.54
77323;BME280;66384;51.052;9.850;2023-05-08T02:56:37;99181.27;;;10.37;65.72
77323;BME280;66384;51.052;9.850;2023-05-08T02:59:14;99181.41;;;10.36;65.67
77323;BME280;66384;51.052;9.850;2023-05-08T03:01:44;99177.48;;;10.37;65.78
77323;BME280;66384;51.052;9.850;2023-05-08T03:04:21;99173.18;;;10.36;65.98
77323;BME280;66384;51.052;9.850;2023-05-08T03:06:55;99174.05;;;10.37;65.61
77323;BME280;66384;51.052;9.850;2023-05-08T03:09:27;99173.98;;;10.34;65.71
77323;BME280;66384;51.052;9.850;2023-05-08T03:12:02;99174.04;;;10.32;65.95
77323;BME280;66384;51.052;9.850;2023-05-08T03:14:36;99176.38;;;10.30;65.80
77323;BME280;66384;51.052;9.850;2023-05-08T03:17:09;99175.17;;;10.30;65.89
77323;BME280;66384;51.052;9.850;2023-05-08T03:19:43;99175.33;;;10.29;65.77
77323;BME280;66384;51.052;9.850;2023-05-08T03:22:15;99173.08;;;10.29;65.87
77323;BME280;66384;51.052;9.850;2023-05-08T03:24:48;99172.23;;;10.25;66.04
77323;BME280;66384;51.052;9.850;2023-05-08T03:27:20;99171.21;;;10.20;65.93
77323;BME280;66384;51.052;9.850;2023-05-08T03:29:49;99165.72;;;10.16;66.01
77323;BME280;66384;51.052;9.850;2023-05-08T03:32:20;99170.30;;;10.14;65.97
77323;BME280;66384;51.052;9.850;2023-05-08T03:34:50;99169.92;;;10.13;66.17
77323;BME280;66384;51.052;9.850;2023-05-08T03:37:21;99167.14;;;10.12;66.27
77323;BME280;66384;51.052;9.850;2023-05-08T03:39:51;99170.56;;;10.12;66.21
77323;BME280;66384;51.052;9.850;2023-05-08T03:42:20;99171.88;;;10.11;66.20
77323;BME280;66384;51.052;9.850;2023-05-08T03:44:52;99169.96;;;10.10;66.24
77323;BME280;66384;51.052;9.850;2023-05-08T03:47:22;99173.30;;;10.07;66.15
77323;BME280;66384;51.052;9.850;2023-05-08T03:49:53;99174.57;;;10.03;66.19
77323;BME280;66384;51.052;9.850;2023-05-08T03:52:22;99172.42;;;10.01;66.21
77323;BME280;66384;51.052;9.850;2023-05-08T03:54:52;99172.38;;;10.00;66.22
77323;BME280;66384;51.052;9.850;2023-05-08T03:57:21;99176.45;;;9.99;66.32
77323;BME280;66384;51.052;9.850;2023-05-08T03:59:57;99173.83;;;9.97;66.30
77323;BME280;66384;51.052;9.850;2023-05-08T04:02:35;99176.96;;;9.99;66.46
77323;BME280;66384;51.052;9.850;2023-05-08T04:05:12;99174.57;;;9.99;66.50
77323;BME280;66384;51.052;9.850;2023-05-08T04:07:50;99170.25;;;9.98;66.43
77323;BME280;66384;51.052;9.850;2023-05-08T04:10:26;99175.67;;;10.01;66.49
77323;BME280;66384;51.052;9.850;2023-05-08T04:13:02;99175.20;;;10.02;66.33
77323;BME280;66384;51.052;9.850;2023-05-08T04:15:35;99174.67;;;10.02;66.45
77323;BME280;66384;51.052;9.850;2023-05-08T04:18:07;99172.54;;;10.05;66.47
77323;BME280;66384;51.052;9.850;2023-05-08T04:20:39;99173.59;;;10.06;66.54
77323;BME280;66384;51.052;9.850;2023-05-08T04:23:09;99173.09;;;10.06;66.65
77323;BME280;66384;51.052;9.850;2023-05-08T04:25:43;99174.83;;;10.07;66.49
77323;BME280;66384;51.052;9.850;2023-05-08T04:28:12;99176.38;;;10.07;66.50
77323;BME280;66384;51.052;9.850;2023-05-08T04:30:42;99178.27;;;10.06;66.43
77323;BME280;66384;51.052;9.850;2023-05-08T04:33:13;99178.98;;;10.07;66.38
77323;BME280;66384;51.052;9.850;2023-05-08T04:35:45;99179.55;;;10.09;66.53
77323;BME280;66384;51.052;9.850;2023-05-08T04:38:14;99181.65;;;10.10;66.53
77323;BME280;66384;51.052;9.850;2023-05-08T04:40:43;99189.45;;;10.12;66.51
77323;BME280;66384;51.052;9.850;2023-05-08T04:43:12;99186.73;;;10.12;66.63
77323;BME280;66384;51.052;9.850;2023-05-08T04:45:42;99190.95;;;10.15;66.64
77323;BME280;66384;51.052;9.850;2023-05-08T04:48:11;99188.00;;;10.19;66.30
77323;BME280;66384;51.052;9.850;2023-05-08T04:50:40;99191.92;;;10.23;66.65
77323;BME280;66384;51.052;9.850;2023-05-08T04:53:10;99193.10;;;10.27;66.69
77323;BME280;66384;51.052;9.850;2023-05-08T04:55:39;99193.58;;;10.31;66.38
77323;BME280;66384;51.052;9.850;2023-05-08T04:58:10;99194.35;;;10.32;66.60
77323;BME280;66384;51.052;9.850;2023-05-08T05:00:39;99197.63;;;10.37;66.37
77323;BME280;66384;51.052;9.850;2023-05-08T05:03:09;99201.90;;;10.41;66.47
77323;BME280;66384;51.052;9.850;2023-05-08T05:05:38;99195.13;;;10.44;66.51
77323;BME280;66384;51.052;9.850;2023-05-08T05:08:07;99195.64;;;10.50;66.66
77323;BME280;66384;51.052;9.850;2023-05-08T05:10:38;99194.45;;;10.55;66.47
77323;BME280;66384;51.052;9.850;2023-05-08T05:13:07;99199.39;;;10.59;66.31
77323;BME280;66384;51.052;9.850;2023-05-08T05:15:36;99207.07;;;10.62;66.23
77323;BME280;66384;51.052;9.850;2023-05-08T05:18:06;99205.61;;;10.65;66.29
77323;BME280;66384;51.052;9.850;2023-05-08T05:20:35;99202.35;;;10.70;66.37
77323;BME280;66384;51.052;9.850;2023-05-08T05:23:04;99203.84;;;10.73;66.05
77323;BME280;66384;51.052;9.850;2023-05-08T05:25:34;99201.10;;;10.79;66.15
77323;BME280;66384;51.052;9.850;2023-05-08T05:28:04;99200.08;;;10.84;66.04
77323;BME280;66384;51.052;9.850;2023-05-08T05:30:34;99202.09;;;10.88;66.09
77323;BME280;66384;51.052;9.850;2023-05-08T05:33:04;99203.04;;;10.90;66.12
77323;BME280;66384;51.052;9.850;2023-05-08T05:35:33;99204.86;;;10.94;65.92
77323;BME280;66384;51.052;9.850;2023-05-08T05:38:02;99205.03;;;10.99;65.92
77323;BME280;66384;51.052;9.850;2023-05-08T05:40:32;99207.18;;;11.02;66.00
77323;BME280;66384;51.052;9.850;2023-05-08T05:43:01;99209.14;;;11.04;65.95
77323;BME280;66384;51.052;9.850;2023-05-08T05:45:30;99208.92;;;11.07;65.89
77323;BME280;66384;51.052;9.850;2023-05-08T05:48:00;99208.36;;;11.11;65.79
77323;BME280;66384;51.052;9.850;2023-05-08T05:50:29;99208.25;;;11.13;65.74
77323;BME280;66384;51.052;9.850;2023-05-08T05:52:59;99211.00;;;11.18;65.84
77323;BME280;66384;51.052;9.850;2023-05-08T05:55:29;99214.89;;;11.21;65.71
77323;BME280;66384;51.052;9.850;2023-05-08T05:57:58;99215.27;;;11.23;65.73
77323;BME280;66384;51.052;9.850;2023-05-08T06:00:27;99218.40;;;11.24;65.69
77323;BME280;66384;51.052;9.850;2023-05-08T06:02:58;99217.03;;;11.24;65.46
77323;BME280;66384;51.052;9.850;2023-05-08T06:05:29;99220.83;;;11.24;65.68
77323;BME280;66384;51.052;9.850;2023-05-08T06:07:58;99220.33;;;11.25;65.72
77323;BME280;66384;51.052;9.850;2023-05-08T06:10:27;99221.22;;;11.26;65.77
77323;BME280;66384;51.052;9.850;2023-05-08T06:12:57;99224.70;;;11.27;65.86
77323;BME280;66384;51.052;9.850;2023-05-08T06:15:26;99220.98;;;11.29;65.93
77323;BME280;66384;51.052;9.850;2023-05-08T06:17:55;99224.66;;;11.31;65.54
77323;BME280;66384;51.052;9.850;2023-05-08T06:20:25;99224.40;;;11.33;65.79
77323;BME280;66384;51.052;9.850;2023-05-08T06:22:54;99227.94;;;11.36;65.59
77323;BME280;66384;51.052;9.850;2023-05-08T06:25:23;99225.70;;;11.36;65.57
77323;BME280;66384;51.052;9.850;2023-05-08T06:27:55;99227.88;;;11.35;65.50
77323;BME280;66384;51.052;9.850;2023-05-08T06:30:24;99226.91;;;11.37;65.72
77323;BME280;66384;51.052;9.850;2023-05-08T06:32:53;99224.70;;;11.38;65.61
77323;BME280;66384;51.052;9.850;2023-05-08T06:35:23;99230.92;;;11.38;65.65
77323;BME280;66384;51.052;9.850;2023-05-08T06:37:53;99232.17;;;11.40;65.61
77323;BME280;66384;51.052;9.850;2023-05-08T06:40:22;99234.27;;;11.41;65.78
77323;BME280;66384;51.052;9.850;2023-05-08T06:42:52;99234.16;;;11.43;65.70
77323;BME280;66384;51.052;9.850;2023-05-08T06:45:21;99228.55;;;11.45;65.82
77323;BME280;66384;51.052;9.850;2023-05-08T06:47:50;99227.27;;;11.48;65.85
77323;BME280;66384;51.052;9.850;2023-05-08T06:50:20;99228.16;;;11.49;65.85
77323;BME280;66384;51.052;9.850;2023-05-08T06:52:49;99227.74;;;11.53;65.76
77323;BME280;66384;51.052;9.850;2023-05-08T06:55:18;99228.24;;;11.58;65.91
77323;BME280;66384;51.052;9.850;2023-05-08T06:57:48;99227.89;;;11.63;65.71
77323;BME280;66384;51.052;9.850;2023-05-08T07:00:18;99225.92;;;11.66;65.75
77323;BME280;66384;51.052;9.850;2023-05-08T07:02:47;99223.74;;;11.68;65.65
77323;BME280;66384;51.052;9.850;2023-05-08T07:05:16;99224.43;;;11.74;65.54
77323;BME280;66384;51.052;9.850;2023-05-08T07:07:47;99223.56;;;11.79;65.46
77323;BME280;66384;51.052;9.850;2023-05-08T07:10:16;99225.33;;;11.86;65.64
77323;BME280;66384;51.052;9.850;2023-05-08T07:12:48;99224.85;;;11.93;65.40
77323;BME280;66384;51.052;9.850;2023-05-08T07:15:17;99225.40;;;12.00;65.33
77323;BME280;66384;51.052;9.850;2023-05-08T07:17:47;99227.31;;;12.06;65.22
77323;BME280;66384;51.052;9.850;2023-05-08T07:20:17;99222.52;;;12.13;65.25
77323;BME280;66384;51.052;9.850;2023-05-08T07:22:46;99224.10;;;12.21;65.14
77323;BME280;66384;51.052;9.850;2023-05-08T07:25:15;99223.65;;;12.30;65.04
77323;BME280;66384;51.052;9.850;2023-05-08T07:27:45;99227.62;;;12.36;64.82
77323;BME280;66384;51.052;9.850;2023-05-08T07:30:15;99229.58;;;12.44;64.59
77323;BME280;66384;51.052;9.850;2023-05-08T07:32:44;99228.75;;;12.52;64.49
77323;BME280;66384;51.052;9.850;2023-05-08T07:35:13;99231.58;;;12.61;64.29
77323;BME280;66384;51.052;9.850;2023-05-08T07:37:43;99226.64;;;12.70;64.18
77323;BME280;66384;51.052;9.850;2023-05-08T07:40:12;99229.70;;;12.82;64.14
77323;BME280;66384;51.052;9.850;2023-05-08T07:42:43;99223.05;;;12.92;63.94
77323;BME280;66384;51.052;9.850;2023-05-08T07:45:13;99223.70;;;13.04;64.02
77323;BME280;66384;51.052;9.850;2023-05-08T07:47:50;99220.90;;;13.16;63.89
77323;BME280;66384;51.052;9.850;2023-05-08T07:50:20;99217.95;;;13.30;63.61
77323;BME280;66384;51.052;9.850;2023-05-08T07:52:50;99218.23;;;13.41;63.45
77323;BME280;66384;51.052;9.850;2023-05-08T07:55:20;99217.17;;;13.55;63.34
77323;BME280;66384;51.052;9.850;2023-05-08T07:57:49;99222.50;;;13.69;63.01
77323;BME280;66384;51.052;9.850;2023-05-08T08:00:19;99216.05;;;13.83;62.85
77323;BME280;66384;51.052;9.850;2023-05-08T08:02:48;99216.02;;;13.97;62.41
77323;BME280;66384;51.052;9.850;2023-05-08T08:05:18;99215.58;;;14.09;62.04
77323;BME280;66384;51.052;9.850;2023-05-08T08:07:47;99213.55;;;14.20;61.86
77323;BME280;66384;51.052;9.850;2023-05-08T08:10:16;99212.02;;;14.31;61.37
77323;BME280;66384;51.052;9.850;2023-05-08T08:12:45;99209.30;;;14.43;61.26
77323;BME280;66384;51.052;9.850;2023-05-08T08:15:15;99207.63;;;14.53;60.93
77323;BME280;66384;51.052;9.850;2023-05-08T08:17:44;99206.94;;;14.63;60.64
77323;BME280;66384;51.052;9.850;2023-05-08T08:20:14;99206.91;;;14.72;60.66
77323;BME280;66384;51.052;9.850;2023-05-08T08:22:43;99206.25;;;14.83;60.84
77323;BME280;66384;51.052;9.850;2023-05-08T08:25:12;99205.63;;;14.97;60.57
77323;BME280;66384;51.052;9.850;2023-05-08T08:27:41;99207.56;;;15.09;60.21
77323;BME280;66384;51.052;9.850;2023-05-08T08:30:11;99210.51;;;15.19;60.09
77323;BME280;66384;51.052;9.850;2023-05-08T08:32:41;99215.48;;;15.27;60.09
77323;BME280;66384;51.052;9.850;2023-05-08T08:35:11;99220.66;;;15.38;59.81
77323;BME280;66384;51.052;9.850;2023-05-08T08:37:40;99214.05;;;15.47;59.41
77323;BME280;66384;51.052;9.850;2023-05-08T08:40:11;99211.90;;;15.55;59.30
77323;BME280;66384;51.052;9.850;2023-05-08T08:42:40;99211.13;;;15.61;59.24
77323;BME280;66384;51.052;9.850;2023-05-08T08:45:10;99211.58;;;15.67;59.04
77323;BME280;66384;51.052;9.850;2023-05-08T08:47:40;99209.06;;;15.72;58.80
77323;BME280;66384;51.052;9.850;2023-05-08T08:50:13;99208.58;;;15.75;58.68
77323;BME280;66384;51.052;9.850;2023-05-08T08:52:53;99209.13;;;15.77;58.52
77323;BME280;66384;51.052;9.850;2023-05-08T08:55:25;99211.58;;;15.79;58.43
77323;BME280;66384;51.052;9.850;2023-05-08T08:58:02;99214.27;;;15.85;58.41
77323;BME280;66384;51.052;9.850;2023-05-08T09:00:36;99213.27;;;15.89;57.96
77323;BME280;66384;51.052;9.850;2023-05-08T09:03:06;99211.95;;;15.93;57.88
77323;BME280;66384;51.052;9.850;2023-05-08T09:05:36;99210.95;;;15.97;57.81
77323;BME280;66384;51.052;9.850;2023-05-08T09:08:06;99213.62;;;16.02;57.78
77323;BME280;66384;51.052;9.850;2023-05-08T09:10:36;99215.76;;;16.07;57.47
77323;BME280;66384;51.052;9.850;2023-05-08T09:13:06;99214.42;;;16.10;57.35
77323;BME280;66384;51.052;9.850;2023-05-08T09:15:35;99214.98;;;16.12;57.31
77323;BME280;66384;51.052;9.850;2023-05-08T09:18:05;99214.65;;;16.14;57.18
77323;BME280;66384;51.052;9.850;2023-05-08T09:20:35;99217.27;;;16.15;56.91
77323;BME280;66384;51.052;9.850;2023-05-08T09:23:04;99219.52;;;16.17;56.83
77323;BME280;66384;51.052;9.850;2023-05-08T09:25:44;99219.39;;;16.18;56.78
77323;BME280;66384;51.052;9.850;2023-05-08T09:28:18;99220.13;;;16.23;56.85
77323;BME280;66384;51.052;9.850;2023-05-08T09:30:52;99222.80;;;16.29;56.79
77323;BME280;66384;51.052;9.850;2023-05-08T09:33:23;99221.30;;;16.35;56.59
77323;BME280;66384;51.052;9.850;2023-05-08T09:35:53;99220.70;;;16.43;56.31
77323;BME280;66384;51.052;9.850;2023-05-08T09:38:36;99224.09;;;16.51;56.24
77323;BME280;66384;51.052;9.850;2023-05-08T09:41:10;99219.36;;;16.64;55.66
77323;BME280;66384;51.052;9.850;2023-05-08T09:43:42;99224.17;;;16.74;55.80
77323;BME280;66384;51.052;9.850;2023-05-08T09:46:22;99223.96;;;16.88;55.60
77323;BME280;66384;51.052;9.850;2023-05-08T09:48:52;99225.31;;;17.02;55.00
77323;BME280;66384;51.052;9.850;2023-05-08T09:51:22;99222.97;;;17.11;54.31
77323;BME280;66384;51.052;9.850;2023-05-08T09:53:53;99223.17;;;17.17;54.47
77323;BME280;66384;51.052;9.850;2023-05-08T09:56:36;99223.92;;;17.24;54.63
77323;BME280;66384;51.052;9.850;2023-05-08T09:59:22;99224.35;;;17.32;54.72
77323;BME280;66384;51.052;9.850;2023-05-08T10:01:53;99222.30;;;17.39;54.21
77323;BME280;66384;51.052;9.850;2023-05-08T10:04:36;99225.13;;;17.43;53.84
77323;BME280;66384;51.052;9.850;2023-05-08T10:07:06;99226.88;;;17.47;53.28
77323;BME280;66384;51.052;9.850;2023-05-08T10:09:35;99226.23;;;17.52;53.32
77323;BME280;66384;51.052;9.850;2023-05-08T10:12:05;99221.58;;;17.59;53.03
77323;BME280;66384;51.052;9.850;2023-05-08T10:14:36;99219.19;;;17.67;52.82
77323;BME280;66384;51.052;9.850;2023-05-08T10:17:06;99218.90;;;17.75;52.64
77323;BME280;66384;51.052;9.850;2023-05-08T10:19:40;99218.27;;;17.84;52.74
77323;BME280;66384;51.052;9.850;2023-05-08T10:22:14;99212.59;;;17.95;52.56
77323;BME280;66384;51.052;9.850;2023-05-08T10:24:44;99209.85;;;18.06;52.55
77323;BME280;66384;51.052;9.850;2023-05-08T10:27:18;99212.68;;;18.17;52.05
77323;BME280;66384;51.052;9.850;2023-05-08T10:29:54;99215.16;;;18.26;51.74
77323;BME280;66384;51.052;9.850;2023-05-08T10:32:24;99209.44;;;18.35;51.50
77323;BME280;66384;51.052;9.850;2023-05-08T10:34:57;99211.20;;;18.44;51.50
77323;BME280;66384;51.052;9.850;2023-05-08T10:37:29;99210.02;;;18.57;51.29
77323;BME280;66384;51.052;9.850;2023-05-08T10:40:00;99206.91;;;18.70;51.17
77323;BME280;66384;51.052;9.850;2023-05-08T10:42:30;99202.59;;;18.86;51.01
77323;BME280;66384;51.052;9.850;2023-05-08T10:45:01;99199.30;;;19.01;50.52
77323;BME280;66384;51.052;9.850;2023-05-08T10:47:42;99199.99;;;19.15;50.06
77323;BME280;66384;51.052;9.850;2023-05-08T10:53:10;99190.73;;;19.33;49.50
77323;BME280;66384;51.052;9.850;2023-05-08T10:55:43;99188.11;;;19.39;49.31
77323;BME280;66384;51.052;9.850;2023-05-08T10:58:14;99187.41;;;19.42;48.80
77323;BME280;66384;51.052;9.850;2023-05-08T11:01:16;99191.95;;;19.45;48.90
77323;BME280;66384;51.052;9.850;2023-05-08T11:03:47;99192.45;;;19.49;48.70
77323;BME280;66384;51.052;9.850;2023-05-08T11:06:40;99186.34;;;19.53;48.23
77323;BME280;66384;51.052;9.850;2023-05-08T11:09:08;99183.02;;;19.59;48.38
77323;BME280;66384;51.052;9.850;2023-05-08T11:11:39;99177.61;;;19.67;48.32
77323;BME280;66384;51.052;9.850;2023-05-08T11:14:15;99176.20;;;19.72;48.36
77323;BME280;66384;51.052;9.850;2023-05-08T11:17:04;99172.70;;;19.78;47.92
77323;BME280;66384;51.052;9.850;2023-05-08T11:19:35;99171.64;;;19.84;47.63
77323;BME280;66384;51.052;9.850;2023-05-08T11:22:19;99171.28;;;19.88;47.73
77323;BME280;66384;51.052;9.850;2023-05-08T11:24:52;99168.46;;;19.91;47.49
77323;BME280;66384;51.052;9.850;2023-05-08T11:27:37;99166.54;;;19.93;47.40
77323;BME280;66384;51.052;9.850;2023-05-08T11:30:33;99168.27;;;19.95;47.53
77323;BME280;66384;51.052;9.850;2023-05-08T11:33:34;99165.27;;;20.00;47.63
77323;BME280;66384;51.052;9.850;2023-05-08T11:36:14;99160.20;;;20.05;47.82
77323;BME280;66384;51.052;9.850;2023-05-08T11:38:50;99162.63;;;20.09;47.79
77323;BME280;66384;51.052;9.850;2023-05-08T11:41:33;99158.79;;;20.09;47.55
77323;BME280;66384;51.052;9.850;2023-05-08T11:44:19;99162.98;;;20.08;47.64
77323;BME280;66384;51.052;9.850;2023-05-08T11:46:53;99163.33;;;20.07;47.84
77323;BME280;66384;51.052;9.850;2023-05-08T11:49:24;99162.13;;;20.06;48.01
77323;BME280;66384;51.052;9.850;2023-05-08T11:51:56;99162.30;;;20.08;48.20
77323;BME280;66384;51.052;9.850;2023-05-08T11:54:28;99161.02;;;20.13;48.49
77323;BME280;66384;51.052;9.850;2023-05-08T11:56:57;99160.49;;;20.17;48.47
77323;BME280;66384;51.052;9.850;2023-05-08T11:59:27;99163.09;;;20.19;48.34
77323;BME280;66384;51.052;9.850;2023-05-08T12:01:56;99161.52;;;20.20;48.37
77323;BME280;66384;51.052;9.850;2023-05-08T12:04:25;99159.59;;;20.21;48.02
77323;BME280;66384;51.052;9.850;2023-05-08T12:06:58;99159.93;;;20.24;48.25
77323;BME280;66384;51.052;9.850;2023-05-08T12:09:27;99158.15;;;20.29;48.39
77323;BME280;66384;51.052;9.850;2023-05-08T12:11:59;99156.05;;;20.31;48.50
77323;BME280;66384;51.052;9.850;2023-05-08T12:14:29;99162.67;;;20.33;48.35
77323;BME280;66384;51.052;9.850;2023-05-08T12:16:58;99161.27;;;20.35;48.43
77323;BME280;66384;51.052;9.850;2023-05-08T12:19:29;99160.91;;;20.36;48.59
77323;BME280;66384;51.052;9.850;2023-05-08T12:21:59;99166.14;;;20.37;48.72
77323;BME280;66384;51.052;9.850;2023-05-08T12:24:28;99157.77;;;20.36;48.83
77323;BME280;66384;51.052;9.850;2023-05-08T12:26:58;99159.19;;;20.33;48.94
77323;BME280;66384;51.052;9.850;2023-05-08T12:29:28;99158.52;;;20.28;48.92
77323;BME280;66384;51.052;9.850;2023-05-08T12:31:57;99159.06;;;20.24;49.02
77323;BME280;66384;51.052;9.850;2023-05-08T12:34:27;99159.79;;;20.18;49.03
77323;BME280;66384;51.052;9.850;2023-05-08T12:37:03;99157.72;;;20.12;48.98
77323;BME280;66384;51.052;9.850;2023-05-08T12:39:36;99152.00;;;20.06;49.17
77323;BME280;66384;51.052;9.850;2023-05-08T12:42:05;99148.70;;;20.01;49.17
77323;BME280;66384;51.052;9.850;2023-05-08T12:44:35;99152.56;;;19.97;49.31
77323;BME280;66384;51.052;9.850;2023-05-08T12:47:05;99154.15;;;19.93;49.52
77323;BME280;66384;51.052;9.850;2023-05-08T12:49:34;99153.63;;;19.90;49.60
77323;BME280;66384;51.052;9.850;2023-05-08T12:52:06;99153.10;;;19.92;49.49
77323;BME280;66384;51.052;9.850;2023-05-08T12:54:38;99146.96;;;19.99;49.38
77323;BME280;66384;51.052;9.850;2023-05-08T12:57:12;99143.23;;;20.10;49.11
77323;BME280;66384;51.052;9.850;2023-05-08T12:59:42;99140.04;;;20.21;48.79
77323;BME280;66384;51.052;9.850;2023-05-08T13:02:16;99139.81;;;20.30;48.80
77323;BME280;66384;51.052;9.850;2023-05-08T13:04:46;99132.23;;;20.40;48.94
77323;BME280;66384;51.052;9.850;2023-05-08T13:07:15;99134.79;;;20.52;49.01
77323;BME280;66384;51.052;9.850;2023-05-08T13:09:58;99130.00;;;20.64;48.91
77323;BME280;66384;51.052;9.850;2023-05-08T13:12:29;99129.38;;;20.77;48.29
77323;BME280;66384;51.052;9.850;2023-05-08T13:14:58;99124.74;;;20.88;48.11
77323;BME280;66384;51.052;9.850;2023-05-08T13:17:27;99121.52;;;20.96;48.05
77323;BME280;66384;51.052;9.850;2023-05-08T13:19:57;99124.39;;;21.07;47.97
77323;BME280;66384;51.052;9.850;2023-05-08T13:22:26;99125.50;;;21.19;47.07
77323;BME280;66384;51.052;9.850;2023-05-08T13:24:55;99127.16;;;21.29;46.78
77323;BME280;66384;51.052;9.850;2023-05-08T13:27:25;99121.66;;;21.38;46.34
77323;BME280;66384;51.052;9.850;2023-05-08T13:29:54;99120.37;;;21.47;46.58